createdAt,value
2018-06-09T00:01:51.133Z,17.80
2018-06-09T00:06:45.711Z,17.80
2018-06-09T00:11:40.112Z,17.80
2018-06-09T00:16:34.545Z,17.60
2018-06-09T00:21:28.968Z,17.60
2018-06-09T00:26:23.408Z,17.70
2018-06-09T00:31:17.819Z,17.70
2018-06-09T00:41:06.532Z,17.70
2018-06-09T00:46:00.968Z,17.80
2018-06-09T00:50:55.342Z,18.00
2018-06-09T00:55:49.774Z,18.00
2018-06-09T01:00:44.203Z,18.00
2018-06-09T01:05:38.595Z,18.00
2018-06-09T01:10:32.989Z,18.00
2018-06-09T01:15:27.420Z,18.00
2018-06-09T01:20:21.860Z,18.00
2018-06-09T01:25:16.271Z,17.80
2018-06-09T01:30:10.711Z,17.70
2018-06-09T01:35:05.365Z,17.70
2018-06-09T01:39:59.796Z,17.90
2018-06-09T01:44:54.184Z,17.80
2018-06-09T01:49:48.615Z,17.70
2018-06-09T01:54:43.013Z,17.60
2018-06-09T01:59:37.424Z,17.40
2018-06-09T02:04:31.848Z,17.30
2018-06-09T02:09:26.296Z,17.30
2018-06-09T02:14:20.700Z,17.30
2018-06-09T02:24:09.344Z,17.30
2018-06-09T02:29:03.881Z,17.40
2018-06-09T02:33:58.360Z,17.50
2018-06-09T02:38:52.764Z,17.50
2018-06-09T02:43:47.217Z,17.50
2018-06-09T02:48:41.651Z,17.40
2018-06-09T02:53:36.068Z,17.40
2018-06-09T02:58:30.510Z,17.30
2018-06-09T03:03:24.919Z,17.20
2018-06-09T03:08:19.349Z,17.30
2018-06-09T03:13:13.769Z,17.30
2018-06-09T03:18:08.192Z,17.10
2018-06-09T03:23:02.729Z,17.00
2018-06-09T03:27:57.136Z,17.20
2018-06-09T03:32:51.556Z,17.10
2018-06-09T03:37:45.965Z,17.30
2018-06-09T03:42:40.367Z,17.30
2018-06-09T03:47:34.802Z,17.50
2018-06-09T03:52:29.227Z,17.70
2018-06-09T03:57:23.624Z,17.80
2018-06-09T04:02:18.233Z,17.90
2018-06-09T04:07:12.620Z,17.60
2018-06-09T04:12:07.041Z,17.60
2018-06-09T04:17:01.425Z,17.60
2018-06-09T04:21:55.845Z,17.90
2018-06-09T04:26:50.220Z,18.10
2018-06-09T04:31:44.624Z,18.40
2018-06-09T04:41:34.084Z,18.30
2018-06-09T04:46:28.500Z,18.30
2018-06-09T04:51:22.933Z,18.50
2018-06-09T04:56:17.404Z,18.60
2018-06-09T05:01:11.812Z,18.70
2018-06-09T05:06:07.756Z,18.80
2018-06-09T05:11:02.232Z,18.90
2018-06-09T05:15:56.650Z,19.00
2018-06-09T05:20:51.082Z,19.40
2018-06-09T05:25:45.529Z,19.70
2018-06-09T05:30:39.961Z,19.90
2018-06-09T05:35:34.409Z,20.20
2018-06-09T05:40:28.796Z,21.00
2018-06-09T05:45:23.225Z,22.90
2018-06-09T05:50:17.817Z,24.00
2018-06-09T05:55:12.382Z,24.10
2018-06-09T06:00:07.230Z,23.80
2018-06-09T06:05:01.660Z,23.80
2018-06-09T06:09:56.075Z,23.10
2018-06-09T06:14:50.509Z,22.70
2018-06-09T06:19:44.925Z,22.50
2018-06-09T06:24:39.388Z,22.20
2018-06-09T06:29:33.882Z,21.80
2018-06-09T06:34:28.368Z,21.50
2018-06-09T06:39:22.820Z,21.40
2018-06-09T06:44:17.296Z,21.80
2018-06-09T06:49:11.748Z,22.10
2018-06-09T06:54:06.263Z,22.40
2018-06-09T06:59:00.726Z,22.30
2018-06-09T07:03:55.175Z,22.20
2018-06-09T07:08:49.604Z,22.00
2018-06-09T07:13:44.065Z,22.00
2018-06-09T07:18:38.492Z,22.30
2018-06-09T07:23:32.907Z,22.60
2018-06-09T07:28:27.311Z,22.50
2018-06-09T07:33:21.824Z,22.80
2018-06-09T07:38:16.270Z,22.60
2018-06-09T07:43:10.715Z,22.40
2018-06-09T07:48:05.234Z,22.30
2018-06-09T07:52:59.736Z,22.80
2018-06-09T07:57:54.167Z,23.30
2018-06-09T08:02:48.619Z,23.70
2018-06-09T08:07:43.073Z,23.60
2018-06-09T08:12:37.528Z,23.50
2018-06-09T08:17:31.955Z,23.80
2018-06-09T08:22:26.390Z,23.80
2018-06-09T08:27:20.845Z,23.90
2018-06-09T08:32:15.304Z,24.50
2018-06-09T08:37:09.729Z,24.70
2018-06-09T08:42:04.212Z,25.10
2018-06-09T08:46:58.614Z,24.70
2018-06-09T08:51:53.021Z,25.00
2018-06-09T08:56:47.469Z,25.60
2018-06-09T09:01:41.943Z,25.50
2018-06-09T09:06:36.378Z,25.80
2018-06-09T09:11:30.841Z,25.70
2018-06-09T09:16:25.422Z,25.70
2018-06-09T09:21:19.832Z,25.50
2018-06-09T09:26:14.292Z,25.10
2018-06-09T09:31:08.672Z,24.90
2018-06-09T09:36:03.111Z,24.50
2018-06-09T09:40:57.525Z,24.50
2018-06-09T09:45:51.940Z,24.30
2018-06-09T09:50:46.412Z,24.60
2018-06-09T09:55:40.842Z,25.10
2018-06-09T10:00:37.315Z,25.10
2018-06-09T10:05:31.771Z,24.90
2018-06-09T10:10:26.212Z,25.00
2018-06-09T10:15:20.663Z,25.20
2018-06-09T10:20:15.101Z,25.50
2018-06-09T10:25:09.549Z,26.20
2018-06-09T10:30:04.029Z,26.60
2018-06-09T10:34:58.445Z,26.90
2018-06-09T10:39:52.846Z,27.40
2018-06-09T10:44:47.283Z,27.30
2018-06-09T10:49:41.722Z,27.40
2018-06-09T10:54:36.216Z,27.60
2018-06-09T10:59:30.660Z,27.80
2018-06-09T11:04:25.161Z,27.90
2018-06-09T11:09:19.571Z,28.10
2018-06-09T11:14:13.990Z,28.40
2018-06-09T11:19:08.381Z,28.10
2018-06-09T11:24:02.827Z,28.30
2018-06-09T11:28:57.316Z,28.70
2018-06-09T11:38:45.884Z,28.90
2018-06-09T11:43:40.295Z,28.90
2018-06-09T11:48:34.692Z,28.90
2018-06-09T11:53:29.111Z,28.40
2018-06-09T11:58:23.525Z,28.20
2018-06-09T12:03:17.996Z,28.30
2018-06-09T12:08:12.408Z,28.30
2018-06-09T12:13:07.105Z,28.70
2018-06-09T12:18:01.543Z,28.60
2018-06-09T12:22:56.034Z,28.80
2018-06-09T12:27:50.482Z,28.70
2018-06-09T12:32:45.957Z,28.70
2018-06-09T12:37:40.358Z,28.30
2018-06-09T12:42:34.822Z,28.50
2018-06-09T12:47:29.288Z,28.00
2018-06-09T12:52:23.792Z,27.30
2018-06-09T12:57:18.218Z,27.50
2018-06-09T13:02:12.647Z,27.90
2018-06-09T13:07:07.566Z,27.80
2018-06-09T13:12:02.028Z,27.90
2018-06-09T13:16:56.441Z,27.90
2018-06-09T13:21:51.513Z,28.30
2018-06-09T13:26:46.006Z,28.70
2018-06-09T13:31:40.440Z,28.90
2018-06-09T13:36:34.898Z,28.20
2018-06-09T13:41:29.345Z,28.20
2018-06-09T13:46:23.785Z,28.40
2018-06-09T13:56:12.396Z,28.90
2018-06-09T14:01:07.049Z,28.80
2018-06-09T14:06:01.466Z,28.60
2018-06-09T14:10:55.955Z,28.40
2018-06-09T14:15:50.360Z,28.20
2018-06-09T14:20:44.784Z,27.70
2018-06-09T14:25:39.200Z,27.70
2018-06-09T14:30:33.629Z,28.10
2018-06-09T14:35:28.064Z,28.30
2018-06-09T14:40:22.497Z,28.10
2018-06-09T14:45:17.068Z,28.10
2018-06-09T14:50:11.564Z,28.30
2018-06-09T14:55:06.060Z,28.60
2018-06-09T15:00:00.572Z,28.70
2018-06-09T15:04:55.067Z,28.70
2018-06-09T15:14:43.661Z,28.70
2018-06-09T15:19:38.153Z,28.30
2018-06-09T15:24:32.521Z,28.20
2018-06-09T15:29:26.977Z,28.10
2018-06-09T15:34:21.393Z,28.00
2018-06-09T15:39:15.854Z,27.90
2018-06-09T15:44:10.296Z,27.90
2018-06-09T15:49:04.815Z,27.90
2018-06-09T15:53:59.235Z,28.20
2018-06-09T15:58:53.732Z,28.20
2018-06-09T16:03:48.181Z,28.20
2018-06-09T16:08:42.646Z,28.40
2018-06-09T16:13:37.066Z,28.70
2018-06-09T16:18:31.542Z,28.90
2018-06-09T16:23:26.053Z,29.00
2018-06-09T16:28:20.498Z,29.00
2018-06-09T16:33:14.928Z,28.80
2018-06-09T16:43:03.973Z,27.40
2018-06-09T16:47:58.403Z,27.00
2018-06-09T16:52:52.893Z,26.80
2018-06-09T16:57:47.404Z,26.70
2018-06-09T17:02:41.816Z,26.60
2018-06-09T17:07:37.046Z,26.50
2018-06-09T17:12:31.461Z,26.40
2018-06-09T17:17:25.898Z,26.30
2018-06-09T17:22:20.345Z,25.90
2018-06-09T17:27:14.771Z,26.00
2018-06-09T17:32:09.254Z,25.80
2018-06-09T17:37:03.958Z,25.70
2018-06-09T17:41:58.452Z,25.60
2018-06-09T17:46:52.901Z,25.60
2018-06-09T17:51:47.364Z,25.50
2018-06-09T17:56:41.852Z,25.40
2018-06-09T18:01:36.255Z,25.30
2018-06-09T18:06:30.724Z,25.20
2018-06-09T18:11:25.213Z,25.20
2018-06-09T18:16:19.736Z,25.20
2018-06-09T18:21:14.246Z,25.00
2018-06-09T18:26:08.822Z,24.90
2018-06-09T18:31:03.315Z,24.80
2018-06-09T18:35:57.728Z,24.60
2018-06-09T18:40:52.178Z,24.60
2018-06-09T18:45:47.579Z,24.50
2018-06-09T18:50:42.208Z,24.40
2018-06-09T18:55:36.736Z,24.30
2018-06-09T19:00:31.179Z,24.30
2018-06-09T19:05:25.711Z,24.70
2018-06-09T19:10:20.163Z,25.10
2018-06-09T19:15:14.636Z,24.80
2018-06-09T19:20:09.342Z,24.40
2018-06-09T19:25:04.072Z,24.10
2018-06-09T19:29:58.752Z,23.90
2018-06-09T19:34:53.227Z,23.80
2018-06-09T19:39:47.674Z,23.70
2018-06-09T19:44:42.119Z,23.50
2018-06-09T19:49:36.565Z,23.40
2018-06-09T19:54:31.044Z,23.30
2018-06-09T19:59:25.468Z,23.10
2018-06-09T20:04:19.922Z,23.00
2018-06-09T20:09:14.381Z,22.90
2018-06-09T20:14:08.989Z,22.90
2018-06-09T20:19:03.602Z,22.90
2018-06-09T20:23:58.086Z,22.90
2018-06-09T20:28:53.150Z,22.70
2018-06-09T20:35:17.090Z,22.50
2018-06-09T20:40:11.605Z,22.50
2018-06-09T20:45:06.350Z,22.40
2018-06-09T20:50:00.993Z,22.30
2018-06-09T20:54:55.511Z,22.20
2018-06-09T20:59:50.143Z,22.10
2018-06-09T21:04:45.652Z,22.00
2018-06-09T21:09:40.376Z,22.00
2018-06-09T21:14:35.012Z,21.90
2018-06-09T21:19:29.648Z,21.90
2018-06-09T21:24:24.883Z,21.90
2018-06-09T21:29:24.761Z,21.80
2018-06-09T21:34:41.128Z,21.70
2018-06-09T21:41:46.224Z,21.60
2018-06-09T21:46:44.766Z,21.60
2018-06-09T21:51:39.300Z,21.50
2018-06-09T21:56:33.817Z,21.40
2018-06-09T22:01:28.247Z,21.50
2018-06-09T22:11:16.869Z,21.30
2018-06-09T22:16:12.088Z,21.30
2018-06-09T22:21:06.587Z,21.20
2018-06-09T22:26:01.081Z,21.10
2018-06-09T22:30:55.518Z,21.10
2018-06-09T22:35:50.094Z,21.20
2018-06-09T22:40:44.518Z,21.00
2018-06-09T22:45:38.929Z,21.00
2018-06-09T22:50:33.408Z,21.00
2018-06-09T22:55:27.908Z,20.90
2018-06-09T23:00:37.077Z,20.80
2018-06-09T23:05:31.614Z,20.70
2018-06-09T23:10:26.204Z,20.60
2018-06-09T23:15:21.139Z,20.50
2018-06-09T23:20:15.746Z,20.50
2018-06-09T23:25:10.243Z,20.50
2018-06-09T23:30:04.781Z,20.50
2018-06-09T23:34:59.273Z,20.40
2018-06-09T23:39:53.807Z,20.30
2018-06-09T23:44:48.388Z,20.20
2018-06-09T23:49:42.806Z,20.20
2018-06-09T23:54:37.228Z,20.20
2018-06-09T23:59:31.905Z,20.20
